PILOTS ONLINE: 457    ATC ONLINE: 85

KSOP - Moore County Airport

Location

City Pinehurst/Southern Pines
Country  United States
Latitude 35° 14' 14" N
Longitude 79° 23' 28" W
Elevation 455 ft
Type Small Airport

Runways

05/23 5503 ft / 150 ft
14/32 1999 ft / 100 ft

Weather

METAR
2014/07/26 00:55
KSOP 260055Z AUTO 00000KT 10SM CLR 24/19 A3004 RMK AO1
TAF
No TAF available

Outbound flights

Inbound flights